Wetterdaten: Woche 18.01.10 - 24.01.10 (KW3)
Datum Zeit Temperatur Luftfeuchte Luftdruck Niederschlag Wind Richtung Sonnenschein Solar Taupunkt Windchill Windben
18.01.2010 00:00 2.2 C 87 % 1026.0 hPa 0.0 l/m 2.5 km/h (1 Bft) O 0.00 h 0 W/m 0.2 C 2.0 C 3.5 km/h (1 Bft)
18.01.2010 01:00 2.2 C 88 % 1026.0 hPa 0.0 l/m 0.6 km/h (0 Bft) O 0.00 h 0 W/m 0.4 C 2.1 C 1.0 km/h (0 Bft)
18.01.2010 02:00 1.8 C 89 % 1026.1 hPa 0.0 l/m 2.4 km/h (1 Bft) O 0.00 h 0 W/m 0.1 C 1.7 C 3.6 km/h (1 Bft)
18.01.2010 03:00 2.1 C 89 % 1026.2 hPa 0.0 l/m 0.7 km/h (0 Bft) O 0.00 h 0 W/m 0.5 C 2.1 C 1.6 km/h (1 Bft)
18.01.2010 04:00 2.0 C 88 % 1026.2 hPa 0.0 l/m 1.0 km/h (0 Bft) O 0.00 h 0 W/m 0.3 C 1.9 C 2.1 km/h (1 Bft)
18.01.2010 05:00 1.4 C 88 % 1026.2 hPa 0.0 l/m 1.2 km/h (1 Bft) O 0.00 h 0 W/m -0.3 C 1.4 C 2.2 km/h (1 Bft)
18.01.2010 06:00 1.3 C 90 % 1026.6 hPa 0.0 l/m 2.5 km/h (1 Bft) O 0.00 h 0 W/m -0.2 C 1.2 C 3.8 km/h (1 Bft)
18.01.2010 07:00 1.4 C 90 % 1026.9 hPa 0.0 l/m 1.8 km/h (1 Bft) O-SO 0.00 h 0 W/m -0.0 C 1.2 C 2.8 km/h (1 Bft)
18.01.2010 08:00 1.6 C 90 % 1027.4 hPa 0.0 l/m 1.9 km/h (1 Bft) O-SO 0.00 h 10 W/m 0.1 C 1.3 C 2.9 km/h (1 Bft)
18.01.2010 09:00 1.8 C 91 % 1027.8 hPa 0.0 l/m 0.2 km/h (0 Bft) W 0.08 h 59 W/m 0.4 C 1.8 C 0.7 km/h (0 Bft)
18.01.2010 10:00 2.7 C 91 % 1027.9 hPa 0.0 l/m 0.7 km/h (0 Bft) W 0.50 h 134 W/m 1.4 C 2.7 C 2.1 km/h (1 Bft)
18.01.2010 11:00 3.8 C 90 % 1027.8 hPa 0.0 l/m 0.0 km/h (0 Bft) O-SO 0.07 h 141 W/m 2.3 C 3.8 C 0.6 km/h (0 Bft)
18.01.2010 12:00 5.1 C 84 % 1027.2 hPa 0.0 l/m 2.8 km/h (1 Bft) W-SW 0.33 h 225 W/m 2.5 C 4.7 C 4.7 km/h (1 Bft)
18.01.2010 13:00 6.6 C 70 % 1026.2 hPa 0.0 l/m 5.4 km/h (1 Bft) W-SW 0.95 h 326 W/m 1.5 C 5.8 C 8.3 km/h (2 Bft)
18.01.2010 14:00 7.0 C 65 % 1025.6 hPa 0.0 l/m 3.3 km/h (1 Bft) W-NW 0.80 h 215 W/m 1.0 C 6.8 C 5.5 km/h (1 Bft)
18.01.2010 15:00 6.1 C 68 % 1025.6 hPa 0.0 l/m 1.2 km/h (1 Bft) W-NW 0.07 h 46 W/m 0.5 C 6.1 C 1.6 km/h (1 Bft)
18.01.2010 16:00 4.7 C 74 % 1026.1 hPa 0.0 l/m 3.0 km/h (1 Bft) O-SO 0.15 h 31 W/m 0.4 C 4.6 C 4.5 km/h (1 Bft)
18.01.2010 17:00 4.0 C 78 % 1026.4 hPa 0.0 l/m 0.1 km/h (0 Bft) O-SO 0.00 h 5 W/m 0.5 C 4.0 C 0.5 km/h (0 Bft)
18.01.2010 18:00 2.7 C 82 % 1026.8 hPa 0.0 l/m 0.6 km/h (0 Bft) O-SO 0.00 h 0 W/m -0.0 C 2.7 C 1.2 km/h (1 Bft)
18.01.2010 19:00 1.1 C 85 % 1027.1 hPa 0.0 l/m 0.7 km/h (0 Bft) O-SO 0.00 h 0 W/m -1.1 C 1.1 C 1.5 km/h (1 Bft)
18.01.2010 20:00 0.1 C 88 % 1027.3 hPa 0.0 l/m 0.7 km/h (0 Bft) O-SO 0.00 h 0 W/m -1.7 C 0.1 C 1.4 km/h (1 Bft)
18.01.2010 21:00 -0.4 C 90 % 1027.2 hPa 0.0 l/m 0.1 km/h (0 Bft) O-SO 0.00 h 0 W/m -1.8 C -0.4 C 0.3 km/h (0 Bft)
18.01.2010 22:00 -1.0 C 91 % 1026.8 hPa 0.0 l/m 0.1 km/h (0 Bft) O-SO 0.00 h 0 W/m -2.2 C -1.0 C 0.5 km/h (0 Bft)
18.01.2010 23:00 -1.3 C 93 % 1026.5 hPa 0.0 l/m 0.1 km/h (0 Bft) O-SO 0.00 h 0 W/m -2.3 C -1.3 C 0.6 km/h (0 Bft)
19.01.2010 00:00 -1.3 C 94 % 1026.1 hPa 0.0 l/m 0.2 km/h (0 Bft) O-SO 0.00 h 0 W/m -2.2 C -1.3 C 0.5 km/h (0 Bft)
19.01.2010 01:00 -1.5 C 95 % 1025.6 hPa 0.0 l/m 0.4 km/h (0 Bft) O-SO 0.00 h 0 W/m -2.1 C -1.5 C 0.9 km/h (0 Bft)
19.01.2010 02:00 -1.8 C 95 % 1025.6 hPa 0.0 l/m 0.5 km/h (0 Bft) O-SO 0.00 h 0 W/m -2.5 C -1.8 C 1.1 km/h (0 Bft)
19.01.2010 03:00 -2.3 C 96 % 1025.5 hPa 0.0 l/m 0.3 km/h (0 Bft) O-SO 0.00 h 0 W/m -2.9 C -2.3 C 0.8 km/h (0 Bft)
19.01.2010 04:00 -2.0 C 96 % 1025.2 hPa 0.0 l/m 0.1 km/h (0 Bft) O-SO 0.00 h 0 W/m -2.6 C -2.0 C 0.4 km/h (0 Bft)
19.01.2010 05:00 -1.9 C 96 % 1024.9 hPa 0.0 l/m 0.0 km/h (0 Bft) N 0.00 h 0 W/m -2.5 C -1.9 C 0.5 km/h (0 Bft)
19.01.2010 06:00 -2.0 C 96 % 1024.4 hPa 0.0 l/m 0.1 km/h (0 Bft) O-SO 0.00 h 0 W/m -2.5 C -2.0 C 0.6 km/h (0 Bft)
19.01.2010 07:00 -1.9 C 97 % 1024.2 hPa 0.0 l/m 0.5 km/h (0 Bft) O-SO 0.00 h 0 W/m -2.3 C -1.9 C 1.5 km/h (1 Bft)
19.01.2010 08:00 -2.0 C 97 % 1024.6 hPa 0.0 l/m 0.6 km/h (0 Bft) O-SO 0.00 h 12 W/m -2.4 C -2.0 C 1.6 km/h (1 Bft)
19.01.2010 09:00 -1.8 C 97 % 1024.7 hPa 0.0 l/m 0.3 km/h (0 Bft) O-SO 0.00 h 43 W/m -2.2 C -1.8 C 0.7 km/h (0 Bft)
19.01.2010 10:00 -1.4 C 97 % 1024.7 hPa 0.0 l/m 0.0 km/h (0 Bft) N 0.00 h 72 W/m -1.8 C -1.4 C 0.3 km/h (0 Bft)
19.01.2010 11:00 -1.1 C 97 % 1024.1 hPa 0.0 l/m 1.5 km/h (1 Bft) W 0.00 h 77 W/m -1.4 C -1.1 C 3.2 km/h (1 Bft)
19.01.2010 12:00 -0.6 C 98 % 1023.4 hPa 0.0 l/m 0.5 km/h (0 Bft) N 0.00 h 81 W/m -0.9 C -0.6 C 1.6 km/h (1 Bft)
19.01.2010 13:00 -0.4 C 98 % 1022.5 hPa 0.0 l/m 0.9 km/h (0 Bft) O 0.00 h 67 W/m -0.7 C -0.4 C 2.4 km/h (1 Bft)
19.01.2010 14:00 -0.5 C 98 % 1021.9 hPa 0.0 l/m 0.5 km/h (0 Bft) SO 0.00 h 64 W/m -0.8 C -0.5 C 1.6 km/h (1 Bft)
19.01.2010 15:00 -0.4 C 98 % 1021.7 hPa 0.0 l/m 0.2 km/h (0 Bft) SO 0.00 h 33 W/m -0.6 C -0.4 C 1.0 km/h (0 Bft)
19.01.2010 16:00 -0.3 C 98 % 1021.7 hPa 0.0 l/m 0.1 km/h (0 Bft) SO 0.00 h 13 W/m -0.6 C -0.3 C 0.9 km/h (0 Bft)
19.01.2010 17:00 -0.6 C 97 % 1021.5 hPa 0.0 l/m 0.9 km/h (0 Bft) SO 0.00 h 0 W/m -1.0 C -0.6 C 2.5 km/h (1 Bft)
19.01.2010 18:00 -0.8 C 97 % 1021.4 hPa 0.0 l/m 0.7 km/h (0 Bft) S 0.00 h 0 W/m -1.2 C -0.8 C 2.0 km/h (1 Bft)
19.01.2010 19:00 -0.9 C 97 % 1021.1 hPa 0.0 l/m 0.1 km/h (0 Bft) S 0.00 h 0 W/m -1.3 C -0.9 C 0.9 km/h (0 Bft)
19.01.2010 20:00 -1.0 C 97 % 1021.1 hPa 0.0 l/m 0.6 km/h (0 Bft) S 0.00 h 0 W/m -1.4 C -1.0 C 1.3 km/h (1 Bft)
19.01.2010 21:00 -1.2 C 97 % 1020.8 hPa 0.0 l/m 1.0 km/h (0 Bft) O-SO 0.00 h 0 W/m -1.7 C -1.5 C 1.7 km/h (1 Bft)
19.01.2010 22:00 -1.3 C 97 % 1020.5 hPa 0.0 l/m 1.0 km/h (0 Bft) O-SO 0.00 h 0 W/m -1.7 C -1.4 C 2.3 km/h (1 Bft)
19.01.2010 23:00 -1.4 C 96 % 1020.3 hPa 0.0 l/m 0.4 km/h (0 Bft) O-SO 0.00 h 0 W/m -2.0 C -1.4 C 0.9 km/h (0 Bft)
20.01.2010 00:00 -1.5 C 96 % 1019.7 hPa 0.0 l/m 1.1 km/h (0 Bft) SO 0.00 h 0 W/m -2.0 C -1.5 C 2.5 km/h (1 Bft)
20.01.2010 01:00 -1.8 C 96 % 1019.0 hPa 0.0 l/m 3.6 km/h (1 Bft) SO 0.00 h 0 W/m -2.4 C -2.8 C 5.8 km/h (2 Bft)
20.01.2010 02:00 -2.1 C 95 % 1019.0 hPa 0.0 l/m 1.7 km/h (1 Bft) O 0.00 h 0 W/m -2.8 C -2.5 C 3.3 km/h (1 Bft)
20.01.2010 03:00 -2.2 C 95 % 1018.8 hPa 0.0 l/m 1.5 km/h (1 Bft) SO 0.00 h 0 W/m -2.9 C -2.4 C 3.2 km/h (1 Bft)
20.01.2010 04:00 -2.3 C 95 % 1018.4 hPa 0.0 l/m 1.5 km/h (1 Bft) O-SO 0.00 h 0 W/m -3.0 C -2.5 C 3.0 km/h (1 Bft)
20.01.2010 05:00 -2.3 C 95 % 1018.1 hPa 0.0 l/m 0.8 km/h (0 Bft) S-SO 0.00 h 0 W/m -3.0 C -2.3 C 2.1 km/h (1 Bft)
20.01.2010 06:00 -2.5 C 94 % 1017.8 hPa 0.0 l/m 1.1 km/h (0 Bft) S-SO 0.00 h 0 W/m -3.4 C -2.6 C 2.5 km/h (1 Bft)
20.01.2010 07:00 -2.6 C 93 % 1017.8 hPa 0.0 l/m 0.0 km/h (0 Bft) O-NO 0.00 h 0 W/m -3.5 C -2.6 C 0.4 km/h (0 Bft)
20.01.2010 08:00 -2.4 C 93 % 1017.2 hPa 0.0 l/m 0.1 km/h (0 Bft) O-NO 0.00 h 8 W/m -3.4 C -2.4 C 0.7 km/h (0 Bft)
20.01.2010 09:00 -2.3 C 92 % 1016.8 hPa 0.0 l/m 0.7 km/h (0 Bft) O-NO 0.00 h 24 W/m -3.5 C -2.3 C 2.4 km/h (1 Bft)
20.01.2010 10:00 -2.3 C 90 % 1016.6 hPa 0.0 l/m 1.0 km/h (0 Bft) O-NO 0.00 h 48 W/m -3.6 C -2.3 C 3.2 km/h (1 Bft)
20.01.2010 11:00 -2.0 C 88 % 1016.3 hPa 0.0 l/m 0.9 km/h (0 Bft) NO 0.00 h 69 W/m -3.6 C -2.0 C 3.0 km/h (1 Bft)
20.01.2010 12:00 -1.8 C 86 % 1015.8 hPa 0.0 l/m 1.4 km/h (1 Bft) O 0.00 h 75 W/m -3.7 C -1.8 C 3.1 km/h (1 Bft)
20.01.2010 13:00 -1.5 C 86 % 1015.5 hPa 0.0 l/m 1.2 km/h (1 Bft) O 0.00 h 76 W/m -3.6 C -1.6 C 2.7 km/h (1 Bft)
20.01.2010 14:00 -1.1 C 85 % 1015.2 hPa 0.0 l/m 1.5 km/h (1 Bft) O-SO 0.00 h 70 W/m -3.3 C -1.2 C 3.3 km/h (1 Bft)
20.01.2010 15:00 -0.8 C 82 % 1015.1 hPa 0.0 l/m 2.3 km/h (1 Bft) O-SO 0.00 h 40 W/m -3.4 C -1.2 C 4.6 km/h (1 Bft)
20.01.2010 16:00 -0.9 C 82 % 1015.2 hPa 0.0 l/m 3.3 km/h (1 Bft) O-SO 0.00 h 17 W/m -3.6 C -1.6 C 5.6 km/h (1 Bft)
20.01.2010 17:00 -1.1 C 84 % 1015.6 hPa 0.0 l/m 2.7 km/h (1 Bft) O-SO 0.00 h 0 W/m -3.6 C -1.4 C 4.5 km/h (1 Bft)
20.01.2010 18:00 -1.3 C 85 % 1015.9 hPa 0.0 l/m 1.2 km/h (1 Bft) O-SO 0.00 h 0 W/m -3.5 C -1.3 C 2.5 km/h (1 Bft)
20.01.2010 19:00 -1.2 C 85 % 1016.2 hPa 0.0 l/m 1.3 km/h (1 Bft) SO 0.00 h 0 W/m -3.4 C -1.3 C 2.8 km/h (1 Bft)
20.01.2010 20:00 -1.3 C 87 % 1016.5 hPa 0.0 l/m 1.2 km/h (1 Bft) O-SO 0.00 h 0 W/m -3.2 C -1.3 C 2.7 km/h (1 Bft)
20.01.2010 21:00 -1.6 C 89 % 1016.9 hPa 0.4 l/m 0.2 km/h (0 Bft) O-SO 0.00 h 0 W/m -3.2 C -1.6 C 1.0 km/h (0 Bft)
20.01.2010 22:00 -1.6 C 90 % 1017.3 hPa 0.6 l/m 0.0 km/h (0 Bft) N 0.00 h 0 W/m -3.0 C -1.6 C 0.0 km/h (0 Bft)
20.01.2010 23:00 -1.4 C 91 % 1017.7 hPa 0.6 l/m 0.0 km/h (0 Bft) N 0.00 h 0 W/m -2.8 C -1.4 C 0.2 km/h (0 Bft)
21.01.2010 00:00 -1.4 C 91 % 1018.1 hPa 0.6 l/m 0.1 km/h (0 Bft) O-SO 0.00 h 0 W/m -2.7 C -1.4 C 0.7 km/h (0 Bft)
21.01.2010 01:00 -1.4 C 92 % 1018.4 hPa 0.4 l/m 0.2 km/h (0 Bft) SW 0.00 h 0 W/m -2.6 C -1.4 C 0.9 km/h (0 Bft)
21.01.2010 02:00 -1.4 C 92 % 1018.6 hPa 0.4 l/m 0.0 km/h (0 Bft) N 0.00 h 0 W/m -2.5 C -1.4 C 0.0 km/h (0 Bft)
21.01.2010 03:00 -1.2 C 93 % 1019.0 hPa 0.2 l/m 0.1 km/h (0 Bft) SW 0.00 h 0 W/m -2.2 C -1.2 C 0.3 km/h (0 Bft)
21.01.2010 04:00 -0.9 C 93 % 1019.3 hPa 0.2 l/m 0.0 km/h (0 Bft) N 0.00 h 0 W/m -1.9 C -0.9 C 0.1 km/h (0 Bft)
21.01.2010 05:00 -0.9 C 94 % 1019.7 hPa 0.0 l/m 0.5 km/h (0 Bft) SW 0.00 h 0 W/m -1.7 C -0.9 C 1.1 km/h (1 Bft)
21.01.2010 06:00 -0.6 C 95 % 1020.1 hPa 0.0 l/m 0.1 km/h (0 Bft) SW 0.00 h 0 W/m -1.3 C -0.6 C 0.4 km/h (0 Bft)
21.01.2010 07:00 -0.4 C 95 % 1020.7 hPa 0.0 l/m 0.0 km/h (0 Bft) SW 0.00 h 0 W/m -1.1 C -0.4 C 0.3 km/h (0 Bft)
21.01.2010 08:00 -0.0 C 95 % 1021.2 hPa 0.0 l/m 0.4 km/h (0 Bft) O-SO 0.00 h 6 W/m -0.7 C -0.0 C 0.8 km/h (0 Bft)
21.01.2010 09:00 0.6 C 96 % 1021.6 hPa 0.0 l/m 0.7 km/h (0 Bft) S-SO 0.00 h 17 W/m 0.1 C 0.6 C 1.9 km/h (1 Bft)
21.01.2010 10:00 0.7 C 96 % 1022.4 hPa 0.0 l/m 0.2 km/h (0 Bft) NO 0.00 h 46 W/m 0.1 C 0.7 C 0.8 km/h (0 Bft)
21.01.2010 11:00 1.7 C 96 % 1022.8 hPa 0.0 l/m 0.3 km/h (0 Bft) O-SO 0.67 h 221 W/m 1.2 C 1.7 C 0.7 km/h (0 Bft)
21.01.2010 12:00 3.8 C 94 % 1022.3 hPa 0.0 l/m 2.0 km/h (1 Bft) O-SO 0.93 h 310 W/m 2.9 C 3.8 C 4.4 km/h (1 Bft)
21.01.2010 13:00 5.1 C 85 % 1021.8 hPa 0.2 l/m 4.7 km/h (1 Bft) S-SO 1.00 h 300 W/m 2.7 C 4.3 C 8.0 km/h (2 Bft)
21.01.2010 14:00 5.0 C 80 % 1021.8 hPa 0.0 l/m 3.9 km/h (1 Bft) S 1.00 h 296 W/m 1.9 C 4.6 C 7.1 km/h (2 Bft)
21.01.2010 15:00 4.9 C 78 % 1022.0 hPa 0.0 l/m 3.1 km/h (1 Bft) S-SO 0.68 h 131 W/m 1.4 C 4.7 C 6.0 km/h (2 Bft)
21.01.2010 16:00 3.7 C 82 % 1022.4 hPa 0.0 l/m 2.3 km/h (1 Bft) S-SO 0.02 h 34 W/m 0.9 C 3.6 C 4.5 km/h (1 Bft)
21.01.2010 17:00 2.9 C 85 % 1022.9 hPa 0.0 l/m 2.6 km/h (1 Bft) S-SO 0.00 h 6 W/m 0.6 C 2.7 C 5.3 km/h (1 Bft)
21.01.2010 18:00 2.2 C 87 % 1023.4 hPa 0.0 l/m 3.9 km/h (1 Bft) S-SO 0.00 h 0 W/m 0.3 C 1.7 C 6.4 km/h (2 Bft)
21.01.2010 19:00 1.8 C 89 % 1023.6 hPa 0.0 l/m 0.7 km/h (0 Bft) SO 0.00 h 0 W/m 0.2 C 1.8 C 1.7 km/h (1 Bft)
21.01.2010 20:00 1.6 C 90 % 1023.8 hPa 0.0 l/m 1.0 km/h (0 Bft) SO 0.00 h 0 W/m 0.1 C 1.6 C 2.7 km/h (1 Bft)
21.01.2010 21:00 1.4 C 91 % 1023.8 hPa 0.0 l/m 0.3 km/h (0 Bft) SO 0.00 h 0 W/m 0.1 C 1.4 C 1.2 km/h (1 Bft)
21.01.2010 22:00 1.1 C 92 % 1023.9 hPa 0.0 l/m 0.3 km/h (0 Bft) SO 0.00 h 0 W/m -0.0 C 1.1 C 1.3 km/h (1 Bft)
21.01.2010 23:00 1.0 C 93 % 1023.8 hPa 0.0 l/m 0.5 km/h (0 Bft) SO 0.00 h 0 W/m -0.0 C 1.0 C 1.5 km/h (1 Bft)
22.01.2010 00:00 0.9 C 93 % 1023.5 hPa 0.0 l/m 0.3 km/h (0 Bft) SO 0.00 h 0 W/m -0.0 C 0.9 C 0.6 km/h (0 Bft)
22.01.2010 01:00 0.8 C 94 % 1023.2 hPa 0.0 l/m 0.3 km/h (0 Bft) SO 0.00 h 0 W/m -0.1 C 0.8 C 1.0 km/h (0 Bft)
22.01.2010 02:00 0.9 C 95 % 1023.2 hPa 0.0 l/m 0.7 km/h (0 Bft) S-SO 0.00 h 0 W/m 0.2 C 0.9 C 2.1 km/h (1 Bft)
22.01.2010 03:00 0.9 C 95 % 1023.2 hPa 0.0 l/m 0.4 km/h (0 Bft) S-SO 0.00 h 0 W/m 0.2 C 0.9 C 1.2 km/h (1 Bft)
22.01.2010 04:00 1.0 C 95 % 1023.2 hPa 0.0 l/m 0.0 km/h (0 Bft) N 0.00 h 0 W/m 0.3 C 1.0 C 0.0 km/h (0 Bft)
22.01.2010 05:00 0.9 C 95 % 1023.2 hPa 0.0 l/m 0.0 km/h (0 Bft) N 0.00 h 0 W/m 0.2 C 0.9 C 0.0 km/h (0 Bft)
22.01.2010 06:00 0.9 C 96 % 1023.3 hPa 0.0 l/m 0.0 km/h (0 Bft) N 0.00 h 0 W/m 0.3 C 0.9 C 0.0 km/h (0 Bft)
22.01.2010 07:00 1.1 C 96 % 1023.6 hPa 0.0 l/m 0.0 km/h (0 Bft) N 0.00 h 0 W/m 0.5 C 1.1 C 0.1 km/h (0 Bft)
22.01.2010 08:00 1.2 C 96 % 1023.8 hPa 0.0 l/m 0.0 km/h (0 Bft) N 0.00 h 11 W/m 0.6 C 1.2 C 0.0 km/h (0 Bft)
22.01.2010 09:00 1.7 C 96 % 1024.0 hPa 0.0 l/m 0.0 km/h (0 Bft) S-SO 0.13 h 61 W/m 1.1 C 1.7 C 0.3 km/h (0 Bft)
22.01.2010 10:00 2.2 C 96 % 1024.2 hPa 0.0 l/m 2.2 km/h (1 Bft) O-SO 0.00 h 58 W/m 1.6 C 1.9 C 4.5 km/h (1 Bft)
22.01.2010 11:00 2.3 C 94 % 1024.2 hPa 0.0 l/m 4.2 km/h (1 Bft) O-SO 0.00 h 59 W/m 1.4 C 1.6 C 6.7 km/h (2 Bft)
22.01.2010 12:00 2.5 C 91 % 1024.0 hPa 0.0 l/m 1.7 km/h (1 Bft) O-SO 0.00 h 81 W/m 1.1 C 2.4 C 3.3 km/h (1 Bft)
22.01.2010 13:00 3.1 C 87 % 1023.5 hPa 0.0 l/m 0.8 km/h (0 Bft) O-SO 0.00 h 117 W/m 1.1 C 3.1 C 2.0 km/h (1 Bft)
22.01.2010 14:00 3.8 C 80 % 1023.1 hPa 0.0 l/m 2.1 km/h (1 Bft) SO 0.00 h 100 W/m 0.7 C 3.6 C 4.5 km/h (1 Bft)
22.01.2010 15:00 3.8 C 77 % 1023.2 hPa 0.0 l/m 0.9 km/h (0 Bft) SO 0.02 h 72 W/m 0.1 C 3.8 C 2.5 km/h (1 Bft)
22.01.2010 16:00 3.6 C 76 % 1023.2 hPa 0.0 l/m 0.3 km/h (0 Bft) O 0.02 h 33 W/m -0.3 C 3.6 C 1.3 km/h (1 Bft)
22.01.2010 17:00 2.2 C 80 % 1023.7 hPa 0.0 l/m 1.3 km/h (1 Bft) O 0.02 h 6 W/m -0.9 C 2.2 C 2.8 km/h (1 Bft)
22.01.2010 18:00 1.3 C 84 % 1024.2 hPa 0.0 l/m 2.0 km/h (1 Bft) O-SO 0.00 h 0 W/m -1.0 C 1.3 C 3.9 km/h (1 Bft)
22.01.2010 19:00 1.4 C 85 % 1024.6 hPa 0.0 l/m 0.6 km/h (0 Bft) O-SO 0.00 h 0 W/m -0.8 C 1.4 C 1.5 km/h (1 Bft)
22.01.2010 20:00 1.5 C 84 % 1024.8 hPa 0.0 l/m 1.0 km/h (0 Bft) O 0.00 h 0 W/m -0.9 C 1.5 C 2.9 km/h (1 Bft)
22.01.2010 21:00 1.5 C 82 % 1024.5 hPa 0.0 l/m 1.7 km/h (1 Bft) N-NO 0.00 h 0 W/m -1.2 C 1.4 C 4.4 km/h (1 Bft)
22.01.2010 22:00 1.4 C 81 % 1024.8 hPa 0.0 l/m 1.0 km/h (0 Bft) O 0.00 h 0 W/m -1.5 C 1.4 C 3.1 km/h (1 Bft)
22.01.2010 23:00 1.4 C 81 % 1024.9 hPa 0.0 l/m 0.6 km/h (0 Bft) NO 0.00 h 0 W/m -1.6 C 1.4 C 2.2 km/h (1 Bft)
23.01.2010 00:00 1.3 C 78 % 1024.9 hPa 0.0 l/m 1.3 km/h (1 Bft) O-SO 0.00 h 0 W/m -2.0 C 1.2 C 3.6 km/h (1 Bft)
23.01.2010 01:00 1.1 C 79 % 1024.4 hPa 0.0 l/m 1.5 km/h (1 Bft) O-SO 0.00 h 0 W/m -2.2 C 0.9 C 3.4 km/h (1 Bft)
23.01.2010 02:00 0.9 C 79 % 1024.2 hPa 0.0 l/m 0.3 km/h (0 Bft) O 0.00 h 0 W/m -2.3 C 0.9 C 1.4 km/h (1 Bft)
23.01.2010 03:00 0.8 C 80 % 1024.1 hPa 0.0 l/m 0.1 km/h (0 Bft) O 0.00 h 0 W/m -2.3 C 0.8 C 0.8 km/h (0 Bft)
23.01.2010 04:00 0.7 C 80 % 1023.8 hPa 0.0 l/m 0.4 km/h (0 Bft) O 0.00 h 0 W/m -2.2 C 0.7 C 1.3 km/h (1 Bft)
23.01.2010 05:00 0.6 C 81 % 1023.8 hPa 0.0 l/m 0.5 km/h (0 Bft) O 0.00 h 0 W/m -2.3 C 0.6 C 1.6 km/h (1 Bft)
23.01.2010 06:00 0.6 C 80 % 1023.4 hPa 0.0 l/m 0.9 km/h (0 Bft) O-SO 0.00 h 0 W/m -2.4 C 0.6 C 2.1 km/h (1 Bft)
23.01.2010 07:00 0.5 C 81 % 1023.4 hPa 0.0 l/m 1.1 km/h (0 Bft) O-SO 0.00 h 0 W/m -2.4 C 0.4 C 2.2 km/h (1 Bft)
23.01.2010 08:00 0.5 C 79 % 1023.4 hPa 0.0 l/m 2.3 km/h (1 Bft) O-SO 0.00 h 14 W/m -2.6 C 0.3 C 4.0 km/h (1 Bft)
23.01.2010 09:00 0.6 C 79 % 1023.5 hPa 0.0 l/m 2.3 km/h (1 Bft) O-SO 0.00 h 40 W/m -2.7 C 0.4 C 4.3 km/h (1 Bft)
23.01.2010 10:00 0.8 C 78 % 1023.8 hPa 0.0 l/m 2.4 km/h (1 Bft) O-SO 0.00 h 63 W/m -2.6 C 0.7 C 4.5 km/h (1 Bft)
23.01.2010 11:00 1.1 C 78 % 1023.8 hPa 0.0 l/m 2.3 km/h (1 Bft) SO 0.00 h 89 W/m -2.4 C 0.8 C 4.2 km/h (1 Bft)
23.01.2010 12:00 1.5 C 77 % 1023.3 hPa 0.0 l/m 2.7 km/h (1 Bft) SO 0.00 h 125 W/m -2.2 C 1.2 C 5.1 km/h (1 Bft)
23.01.2010 13:00 2.0 C 74 % 1022.6 hPa 0.0 l/m 2.1 km/h (1 Bft) S-SW 0.15 h 164 W/m -2.1 C 1.8 C 3.9 km/h (1 Bft)
23.01.2010 14:00 2.6 C 71 % 1022.2 hPa 0.0 l/m 2.1 km/h (1 Bft) W 0.87 h 197 W/m -2.1 C 2.4 C 4.1 km/h (1 Bft)
23.01.2010 15:00 2.8 C 70 % 1022.3 hPa 0.0 l/m 1.7 km/h (1 Bft) S-SO 1.00 h 146 W/m -2.1 C 2.8 C 3.9 km/h (1 Bft)
23.01.2010 16:00 2.5 C 71 % 1022.5 hPa 0.0 l/m 0.1 km/h (0 Bft) S-SW 0.57 h 55 W/m -2.3 C 2.5 C 0.8 km/h (0 Bft)
23.01.2010 17:00 0.9 C 75 % 1022.9 hPa 0.0 l/m 0.6 km/h (0 Bft) S-SW 0.05 h 7 W/m -3.0 C 0.9 C 1.1 km/h (1 Bft)
23.01.2010 18:00 -0.6 C 81 % 1023.1 hPa 0.0 l/m 1.1 km/h (1 Bft) S-SO 0.00 h 0 W/m -3.4 C -0.6 C 2.1 km/h (1 Bft)
23.01.2010 19:00 -1.3 C 85 % 1023.6 hPa 0.0 l/m 0.0 km/h (0 Bft) S-SO 0.00 h 0 W/m -3.4 C -1.3 C 0.6 km/h (0 Bft)
23.01.2010 20:00 -1.5 C 87 % 1023.4 hPa 0.0 l/m 0.1 km/h (0 Bft) S-SO 0.00 h 0 W/m -3.4 C -1.5 C 0.3 km/h (0 Bft)
23.01.2010 21:00 -1.9 C 88 % 1023.5 hPa 0.0 l/m 0.1 km/h (0 Bft) S-SO 0.00 h 0 W/m -3.6 C -1.9 C 0.3 km/h (0 Bft)
23.01.2010 22:00 -2.0 C 89 % 1023.2 hPa 0.0 l/m 0.0 km/h (0 Bft) N 0.00 h 0 W/m -3.5 C -2.0 C 0.0 km/h (0 Bft)
23.01.2010 23:00 -2.2 C 90 % 1023.2 hPa 0.0 l/m 0.0 km/h (0 Bft) S-SO 0.00 h 0 W/m -3.6 C -2.2 C 0.2 km/h (0 Bft)
24.01.2010 00:00 -2.5 C 91 % 1023.2 hPa 0.0 l/m 0.0 km/h (0 Bft) N 0.00 h 0 W/m -3.7 C -2.5 C 0.0 km/h (0 Bft)
24.01.2010 01:00 -2.7 C 91 % 1023.1 hPa 0.0 l/m 0.0 km/h (0 Bft) N 0.00 h 0 W/m -3.9 C -2.7 C 0.1 km/h (0 Bft)
24.01.2010 02:00 -2.9 C 92 % 1023.2 hPa 0.0 l/m 0.1 km/h (0 Bft) S-SO 0.00 h 0 W/m -4.1 C -2.9 C 0.2 km/h (0 Bft)
24.01.2010 03:00 -3.2 C 92 % 1023.3 hPa 0.0 l/m 0.0 km/h (0 Bft) S-SO 0.00 h 0 W/m -4.3 C -3.2 C 0.3 km/h (0 Bft)
24.01.2010 04:00 -3.2 C 92 % 1023.6 hPa 0.0 l/m 0.0 km/h (0 Bft) N 0.00 h 0 W/m -4.3 C -3.2 C 0.4 km/h (0 Bft)
24.01.2010 05:00 -3.4 C 92 % 1023.8 hPa 0.0 l/m 1.3 km/h (1 Bft) O-SO 0.00 h 0 W/m -4.5 C -3.4 C 2.6 km/h (1 Bft)
24.01.2010 06:00 -3.2 C 93 % 1024.1 hPa 0.0 l/m 3.1 km/h (1 Bft) O 0.00 h 0 W/m -4.2 C -3.7 C 5.0 km/h (1 Bft)
24.01.2010 07:00 -2.7 C 93 % 1024.2 hPa 0.0 l/m 5.0 km/h (1 Bft) O-SO 0.00 h 0 W/m -3.7 C -4.5 C 6.8 km/h (2 Bft)
24.01.2010 08:00 -2.4 C 94 % 1024.3 hPa 0.0 l/m 3.3 km/h (1 Bft) O-SO 0.00 h 10 W/m -3.3 C -2.9 C 5.3 km/h (1 Bft)
24.01.2010 09:00 -2.2 C 93 % 1024.5 hPa 0.0 l/m 1.3 km/h (1 Bft) O-SO 0.00 h 35 W/m -3.1 C -2.2 C 2.8 km/h (1 Bft)
24.01.2010 10:00 -1.7 C 93 % 1024.8 hPa 0.0 l/m 0.1 km/h (0 Bft) O-SO 0.00 h 69 W/m -2.7 C -1.7 C 0.5 km/h (0 Bft)
24.01.2010 11:00 -1.1 C 92 % 1024.7 hPa 0.0 l/m 0.4 km/h (0 Bft) SO 0.00 h 112 W/m -2.2 C -1.1 C 1.4 km/h (1 Bft)
24.01.2010 12:00 -0.4 C 90 % 1024.4 hPa 0.0 l/m 1.0 km/h (0 Bft) S-SW 0.00 h 126 W/m -1.8 C -0.4 C 2.6 km/h (1 Bft)
24.01.2010 13:00 0.1 C 88 % 1024.0 hPa 0.0 l/m 0.2 km/h (0 Bft) S-SW 0.00 h 119 W/m -1.7 C 0.1 C 1.3 km/h (1 Bft)
24.01.2010 14:00 0.4 C 85 % 1023.6 hPa 0.0 l/m 0.3 km/h (0 Bft) S-SW 0.00 h 105 W/m -1.7 C 0.4 C 1.0 km/h (0 Bft)
24.01.2010 15:00 0.5 C 85 % 1023.5 hPa 0.0 l/m 0.1 km/h (0 Bft) S-SW 0.00 h 79 W/m -1.7 C 0.5 C 0.3 km/h (0 Bft)
24.01.2010 16:00 0.7 C 84 % 1023.3 hPa 0.0 l/m 0.6 km/h (0 Bft) O-SO 0.00 h 28 W/m -1.7 C 0.7 C 1.5 km/h (1 Bft)
24.01.2010 17:00 0.3 C 85 % 1023.6 hPa 0.0 l/m 1.3 km/h (1 Bft) O-SO 0.00 h 5 W/m -1.9 C 0.3 C 3.0 km/h (1 Bft)
24.01.2010 18:00 0.4 C 85 % 1023.8 hPa 0.0 l/m 0.1 km/h (0 Bft) O-SO 0.00 h 0 W/m -1.8 C 0.4 C 0.8 km/h (0 Bft)
24.01.2010 19:00 0.4 C 85 % 1024.1 hPa 0.0 l/m 0.5 km/h (0 Bft) O-SO 0.00 h 0 W/m -1.8 C 0.4 C 1.7 km/h (1 Bft)
24.01.2010 20:00 0.4 C 85 % 1024.0 hPa 0.0 l/m 0.2 km/h (0 Bft) O 0.00 h 0 W/m -1.8 C 0.4 C 1.3 km/h (1 Bft)
24.01.2010 21:00 0.5 C 85 % 1023.9 hPa 0.0 l/m 0.0 km/h (0 Bft) N 0.00 h 0 W/m -1.8 C 0.5 C 0.2 km/h (0 Bft)
24.01.2010 22:00 0.5 C 85 % 1023.8 hPa 0.0 l/m 0.0 km/h (0 Bft) N 0.00 h 0 W/m -1.8 C 0.5 C 0.3 km/h (0 Bft)
24.01.2010 23:00 0.4 C 85 % 1023.8 hPa 0.0 l/m 0.6 km/h (0 Bft) O-SO 0.00 h 0 W/m -1.8 C 0.4 C 1.6 km/h (1 Bft)
Min-Datum _ 24.01.10 18.01.10 20.01.10 - 18.01.10 - - - 24.01.10 24.01.10 18.01.10
_ Min-Zeit 05:10 14:35 14:15 - 00:01 - - - 05:10 06:37 00:02
Minimum _ -3.5 C 64 % 1015.1 hPa - 0.0 km/h (0 Bft) - - - -4.6 C -6.1 C 0.0 km/h (0 Bft)
Max-Datum _ 18.01.10 19.01.10 18.01.10 20.01.10 21.01.10 - 18.01.10 18.01.10 21.01.10 18.01.10 18.01.10
_ Max-Zeit 14:18 11:01 10:00 22:13 13:38 - 09:55 12:59 12:55 14:18 13:26
Maximum _ 7.2 C 98 % 1028.0 hPa 0.6 l/m 10.4 km/h
S-SO (2 Bft)
- 0.02 h 475 W/m 3.8 C 7.2 C 17.4 km/h
W-SW (3 Bft)
Durchschnitt _ 0.3 C 88 % 1022.8 hPa #3.6 l/m 1.0 km/h (0 Bft) O-SO #10:04 h 34 W/m -1.5 C 0.2 C 2.1 km/h (1 Bft)
© Kaiko 2010